Aviation Digital Data Service (ADDS)

Output produced by METARs form (1051 UTC 21 April 2021)
found at http://www.aviationweather.gov/metar/data/
 
KABE 210523Z 2106/2206 18009KT P6SM SCT100 BKN250 WS020/20040KT 
     FM211200 20010G17KT P6SM SCT070 BKN100 
     FM211700 24013G22KT 6SM -SHRA VCTS SCT035CB OVC050 
     FM211900 31017G27KT P6SM SCT025 BKN040 
     FM220300 30010G18KT P6SM SCT045
       
KMPO 210953Z AUTO 10003KT 10SM OVC100 06/02 A2970 RMK AO2 SLP060 T00560022
KAVP 210954Z 00000KT 10SM BKN100 04/03 A2970 RMK AO2 SLP056 T00440028
KAVP 210524Z 2106/2206 VRB05KT P6SM BKN035 
     FM211100 20009KT P6SM BKN025 
     FM211400 28010G16KT 5SM -SHRA BR OVC015 
     TEMPO 2116/2119 -TSRA BKN025CB 
     FM212200 32012G22KT P6SM -RASN OVC030 
     FM220200 31010KT P6SM -SHSN OVC040
       
KBGM 210953Z 01007KT 10SM FEW008 OVC016 00/M01 A2973 RMK AO2 SLP078 T00001006
KBGM 210921Z 2109/2206 06006KT P6SM BKN018 OVC040 
     FM211100 05006KT 4SM -SHRA BR OVC015 
     FM211400 32010KT 2SM -RAPL BR OVC008 
     FM211700 31014G24KT 3SM -RASNPL BR OVC012 
     FM212100 32015G26KT P6SM OVC030 
     FM220300 31011KT 6SM -SHSN OVC025
       
KITH 210956Z 35005KT 8SM BKN011 OVC024 01/M01 A2978 RMK AO2 SLP093 T00061006
KITH 210815Z 2108/2206 03005KT P6SM OVC025 
     FM211100 35005KT 2SM -SNRAPL BR OVC025 
     FM211500 33010KT 1 1/2SM -SN BR OVC015 
     FM211800 32013G21KT 5SM -RASN BR OVC018 
     FM220100 31011KT 6SM -SHSN OVC025
       
KELM 211045Z 07008KT 5SM -SN BR BKN013 BKN020 OVC028 02/M01 A2976 RMK AO2 RAB00E17B25E40SNB40 P0003 T00171006
KELM 211035Z 06010KT 2 1/2SM +RA BR SCT012 BKN017 OVC028 02/M01 A2977 RMK AO2 RAB00E17B25 P0003 T00171006
KELM 211033Z 08007KT 3SM +RA BR BKN014 BKN019 OVC028 02/M01 A2977 RMK AO2 RAB00E17B25 PRESFR P0003 T00171006
KELM 211024Z VRB05KT 10SM VCTS BKN016 OVC028 02/M01 A2980 RMK AO2 RAB00E17 P0000 T00221006
KELM 210953Z 04003KT 10SM BKN017 OVC025 02/M01 A2978 RMK AO2 SLP090 T00221006
KELM 210524Z 2106/2206 02006KT 6SM -SHRA BR BKN015 OVC035 
     FM211000 35010KT 3SM -RAPL BR OVC015 
     FM211300 34011KT 1 1/2SM -SNPL BR OVC010 
     FM211600 33012G21KT 6SM -RASN BR OVC025 
     FM220100 31009KT 5SM -SHSN OVC040
       
KPEO 211046Z AUTO 36003KT 2 1/2SM -SN BR OVC004 00/M02 A2979 RMK AO2 P0003 T00001017
KPEO 211037Z AUTO 00000KT 2SM -SN BR OVC004 00/M02 A2980 RMK AO2 P0003 T00001017
KPEO 211027Z AUTO 03005KT 2 1/2SM -SN BR BKN006 OVC012 00/M02 A2979 RMK AO2 P0003 T00001017
KPEO 211018Z AUTO 00000KT 2SM -SN BR BKN006 OVC012 00/M02 A2980 RMK AO2 P0003 T00001017
KPEO 211011Z AUTO 1 3/4SM -SN BR BKN006 OVC012 00/M02 A2980 RMK AO2 P0003 T00001017
KPEO 210953Z AUTO 35006KT 2 1/2SM -SN BR OVC005 00/M02 A2982 RMK AO2 RAB26E41SNB41 CIG 004V009 SLP105 P0001 T00001017